Fort Klamath, Oregon
Current Conditions -  °F | °C
As of 12:12 PM on Wednesday 26 Nov 2014 (Local Time) from KLMT Reporting Station
Few Clouds Few Clouds  
Wind Chill: 38°   Ceiling: Unl
Heat Index: 38°   Visibility: 9mi
Dew Point: 37°   Wind: 0mph
Humidity: 97%   Direction: NA
Pressure: 30.3"   Gusts: NA
Location:  42.7°N, 122°W
Report Text: KLMT 262012Z 00000KT 9SM FEW002 03/03 A3030 RMK AO2 T00330028
Loading
Personal Weather Stations






























Interactive Weather Map New forecast layout! Learn more

10-Day Weather Forecast

Advertisements
Track Severe Weather on mobile